Latest Weather Observations for Point Stuart

IDD60801

Issued at 11:31 pm CST Friday 20 January 2017 (issued every 30 minutes, with the page automatically refreshed every 10 minutes)

About weather observations | Map of weather stations | Latest weather observations for NT | Other Formats
Station Details ID: 014254 Name: POINT STUART Lat: -12.24 Lon: 131.88 Height: 1.0 m
Data from the previous 72 hours. | See also: Recent months at Point Stuart
Date/Time
CST
Temp
°C
App
Temp
°C
Dew
Point
°C
Rel
Hum
%
Delta-T
°C
Wind Press
QNH
hPa
Press
MSL
hPa
Rain since
9am
mm
Dir  Spd
km/h
Gust
km/h
Spd
kts
Gust
kts
20/11:30pm 26.2 32.3 26.2 100 0.0 WSW 6 7 3 4 1009.7 - 3.0
20/11:00pm 26.2 32.1 26.2 100 0.0 WSW 7 9 4 5 1009.7 - 3.0
20/10:30pm 26.2 33.0 26.2 100 0.0 WSW 2 6 1 3 1009.7 - 3.0
20/10:00pm 26.3 31.9 26.3 100 0.0 WSW 9 9 5 5 1009.3 - 3.0
20/09:30pm 26.4 32.6 26.4 100 0.0 WSW 6 7 3 4 1009.3 - 3.0
20/09:00pm 26.5 32.5 26.3 99 0.1 WSW 7 9 4 5 1008.9 1008.9 3.0
20/08:30pm 26.6 32.8 26.4 99 0.1 WSW 6 9 3 5 1008.6 - 3.0
20/08:00pm 26.7 32.2 26.2 97 0.4 WSW 9 11 5 6 1008.2 - 3.0
20/07:30pm 26.9 31.5 26.0 95 0.6 WSW 13 15 7 8 1007.8 - 3.0
20/07:00pm 27.2 31.8 26.0 93 0.8 WSW 13 19 7 10 1007.5 - 3.0
20/06:30pm 27.6 31.1 26.0 91 1.1 W 19 24 10 13 1007.2 - 3.0
20/06:00pm 27.7 31.6 26.6 94 0.8 W 19 24 10 13 1007.1 1007.1 3.0
20/05:30pm 27.5 31.0 26.8 96 0.5 W 22 30 12 16 1007.1 - 3.0
20/05:00pm 27.5 31.8 27.2 98 0.2 W 19 24 10 13 1007.1 - 2.8
20/04:30pm 27.0 31.8 26.8 99 0.1 W 15 22 8 12 1006.8 - 2.8
20/04:00pm 25.7 29.6 25.4 98 0.2 W 15 20 8 11 1006.9 - 2.8
20/03:30pm 25.6 25.7 24.6 94 0.7 W 32 43 17 23 1007.0 - 2.2
20/03:00pm 27.9 29.2 25.9 89 1.4 W 30 39 16 21 1007.0 1007.0 1.2
20/02:30pm 29.8 35.0 28.0 90 1.3 WNW 17 26 9 14 1007.0 - 1.2
20/02:00pm 29.2 33.6 27.4 90 1.3 NW 19 26 10 14 1007.5 - 1.2
20/01:30pm 29.7 35.8 28.1 91 1.2 NW 13 20 7 11 1007.7 - 1.2
20/01:00pm 30.0 36.1 28.7 93 1.0 NW 15 24 8 13 1007.9 - 1.2
20/12:30pm 29.9 36.6 29.4 97 0.4 NW 15 20 8 11 1008.1 - 1.2
20/12:00pm 29.2 36.5 29.2 100 0.0 WNW 11 15 6 8 1008.3 1008.3 1.2
20/11:30am 27.9 34.6 27.9 100 0.0 W 9 11 5 6 1008.7 - 1.0
20/11:00am 27.1 34.2 27.1 100 0.0 WSW 4 7 2 4 1009.1 - 1.0
20/10:30am 26.2 33.4 26.2 100 0.0 CALM 0 0 0 0 1009.7 - 1.0
20/10:00am 25.7 32.6 25.7 100 0.0 CALM 0 2 0 1 1009.9 - 1.0
20/09:30am 25.6 32.4 25.6 100 0.0 CALM 0 6 0 3 1009.5 - 0.6
20/09:00am 25.0 31.5 25.0 100 0.0 CALM 0 0 0 0 1009.5 1009.5 32.0
20/08:30am 24.6 30.8 24.6 100 0.0 CALM 0 6 0 3 1009.3 - 31.2
20/08:00am 24.6 29.1 24.6 100 0.0 NNW 9 11 5 6 1009.1 - 29.6
20/07:30am 24.1 27.9 24.1 100 0.0 WNW 11 13 6 7 1008.9 - 28.6
20/07:00am 24.2 29.0 24.2 100 0.0 W 6 11 3 6 1008.8 - 27.4
20/06:30am 24.1 25.8 24.1 100 0.0 NW 22 32 12 17 1008.8 - 13.6
20/06:00am 24.6 28.3 24.6 100 0.0 SSE 13 17 7 9 1007.5 1007.5 0.6
20/05:30am 24.7 29.3 24.7 100 0.0 ESE 9 15 5 8 1007.3 - 0.6
20/05:00am 25.0 29.7 25.0 100 0.0 ESE 9 11 5 6 1007.0 - 0.6
20/04:30am 25.1 29.5 25.1 100 0.0 ESE 11 13 6 7 1006.8 - 0.6
20/04:00am 25.3 30.2 25.3 100 0.0 ESE 9 11 5 6 1007.2 - 0.2
20/03:30am 25.4 30.8 25.4 100 0.0 ESE 7 13 4 7 1007.2 - 0.2
20/03:00am 25.8 32.4 25.8 100 0.0 SE 2 7 1 4 1007.5 1007.5 0.2
20/02:30am 26.0 33.1 26.0 100 0.0 CALM 0 0 0 0 1007.5 - 0.2
20/02:00am 26.3 32.3 26.3 100 0.0 E 7 7 4 4 1007.7 - 0.2
20/01:30am 26.3 31.9 26.3 100 0.0 ENE 9 11 5 6 1007.9 - 0.2
20/01:00am 26.2 32.1 26.2 100 0.0 ENE 7 9 4 5 1008.3 - 0.2
20/12:30am 26.2 32.3 26.2 100 0.0 E 6 9 3 5 1008.4 - 0.0
20/12:00am 26.1 32.1 26.1 100 0.0 NE 6 7 3 4 1008.8 1008.8 0.0
 
Date/Time
CST
Temp
°C
App
Temp
°C
Dew
Point
°C
Rel
Hum
%
Delta-T
°C
Wind Press
QNH
hPa
Press
MSL
hPa
Rain since
9am
mm
Dir  Spd
km/h
Gust
km/h
Spd
kts
Gust
kts
19/11:30pm 26.1 31.9 26.1 100 0.0 ENE 7 9 4 5 1009.0 - 0.0
19/11:00pm 26.0 31.6 25.8 99 0.1 ENE 7 9 4 5 1009.3 - 0.0
19/10:30pm 25.9 31.0 25.6 98 0.2 ENE 9 13 5 7 1009.5 - 0.0
19/10:00pm 25.9 31.8 25.4 97 0.3 S 4 9 2 5 1009.1 - 0.0
19/09:30pm 26.1 31.5 25.4 96 0.5 S 7 11 4 6 1009.0 - 0.0
19/09:00pm 26.1 30.4 24.9 93 0.8 SSW 11 13 6 7 1008.8 1008.8 0.0
19/08:30pm 26.0 30.8 24.2 90 1.2 S 6 9 3 5 1008.6 - 0.0
19/08:00pm 26.0 30.0 23.7 87 1.6 S 9 13 5 7 1008.4 - 0.0
19/07:30pm 26.1 28.0 22.8 82 2.2 S 17 22 9 12 1008.2 - 0.0
19/07:00pm 29.0 30.5 24.3 76 3.3 W 24 32 13 17 1007.7 - 0.0
19/06:30pm 29.1 29.7 24.2 75 3.4 W 28 37 15 20 1007.1 - 0.0
19/06:00pm 29.6 30.4 24.5 74 3.6 WNW 28 37 15 20 1006.6 1006.6 0.0
19/05:30pm 31.3 33.2 25.6 71 4.0 NW 26 33 14 18 1006.4 - 0.0
19/05:00pm 31.6 33.6 26.4 74 3.7 NW 28 35 15 19 1006.3 - 0.0
19/04:30pm 31.8 35.1 26.6 74 3.7 NW 22 30 12 16 1006.3 - 0.0
19/04:00pm 32.1 36.6 27.8 78 3.1 NW 20 28 11 15 1006.4 - 0.0
19/03:30pm 31.3 36.0 27.2 79 3.0 NNW 17 24 9 13 1006.8 - 0.0
19/03:00pm 31.2 34.8 26.5 76 3.4 NW 20 28 11 15 1007.4 1007.4 0.0
19/02:30pm 32.0 36.9 27.5 77 3.3 NW 17 24 9 13 1007.7 - 0.0
19/02:00pm 30.5 34.3 26.4 79 2.9 WNW 19 26 10 14 1008.3 - 0.0
19/01:30pm 31.3 37.1 28.3 84 2.2 NW 15 24 8 13 1008.8 - 0.0
19/01:00pm 31.1 37.0 28.9 88 1.6 NW 17 22 9 12 1009.1 - 0.0
19/12:30pm 30.3 36.3 28.5 90 1.3 WNW 15 19 8 10 1009.2 - 0.0
19/12:00pm 30.2 37.3 28.9 93 1.0 NW 11 15 6 8 1009.6 1009.6 0.0
19/11:30am 29.2 36.5 27.9 93 0.9 NNE 6 15 3 8 1009.8 - 0.0
19/11:00am 28.9 35.9 27.8 94 0.8 NE 7 13 4 7 1009.9 - 0.0
19/10:30am 29.3 37.1 28.6 96 0.5 NE 6 11 3 6 1010.0 - 0.0
19/10:00am 29.1 37.3 29.1 100 0.0 NE 6 13 3 7 1010.2 - 0.0
19/09:30am 28.8 36.7 28.8 100 0.0 ENE 6 9 3 5 1010.3 - 0.0
19/09:00am 27.8 34.8 27.8 100 0.0 E 7 9 4 5 1010.6 1010.6 10.0
19/08:30am 27.0 34.8 27.0 100 0.0 CALM 0 6 0 3 1010.7 - 10.0
19/08:00am 26.5 33.9 26.5 100 0.0 CALM 0 0 0 0 1010.9 - 10.0
19/07:30am 26.0 33.1 26.0 100 0.0 CALM 0 0 0 0 1010.8 - 10.0
19/07:00am 25.1 30.9 25.1 100 0.0 SW 4 7 2 4 1010.4 - 10.0
19/06:30am 25.0 30.1 25.0 100 0.0 SW 7 7 4 4 1010.0 - 10.0
19/06:00am 25.2 30.5 25.2 100 0.0 WSW 7 9 4 5 1009.7 1009.7 10.0
19/05:30am 25.2 30.6 25.2 100 0.0 SW 6 7 3 4 1009.3 - 10.0
19/05:00am 25.2 30.1 25.2 100 0.0 SSW 9 11 5 6 1008.8 - 10.0
19/04:30am 25.2 30.1 25.2 100 0.0 SSW 9 11 5 6 1008.6 - 10.0
19/04:00am 25.1 30.3 25.1 100 0.0 SSW 7 11 4 6 1008.5 - 10.0
19/03:30am 25.1 30.3 25.1 100 0.0 SW 7 9 4 5 1008.7 - 10.0
19/03:00am 25.2 30.5 25.2 100 0.0 SSW 7 11 4 6 1008.9 1008.9 10.0
19/02:30am 25.2 30.5 25.2 100 0.0 SSW 7 11 4 6 1009.2 - 10.0
19/02:00am 25.2 30.5 25.2 100 0.0 SSW 7 9 4 5 1009.5 - 10.0
19/01:30am 25.3 31.9 25.3 100 0.0 CALM 0 4 0 2 1009.9 - 9.8
19/01:00am 25.4 31.0 25.4 100 0.0 SSW 6 7 3 4 1010.6 - 9.8
19/12:30am 25.6 30.7 25.6 100 0.0 SSW 9 11 5 6 1011.4 - 9.8
19/12:00am 25.8 31.1 25.8 100 0.0 S 9 11 5 6 1011.6 1011.6 9.8
 
Date/Time
CST
Temp
°C
App
Temp
°C
Dew
Point
°C
Rel
Hum
%
Delta-T
°C
Wind Press
QNH
hPa
Press
MSL
hPa
Rain since
9am
mm
Dir  Spd
km/h
Gust
km/h
Spd
kts
Gust
kts
18/11:30pm 25.7 31.3 25.7 100 0.0 SSW 7 11 4 6 1011.9 - 9.8
18/11:00pm 25.6 30.7 25.6 100 0.0 SSW 9 13 5 7 1011.9 - 9.6
18/10:30pm 25.7 30.5 25.7 100 0.0 SSW 11 15 6 8 1011.8 - 9.2
18/10:00pm 25.9 30.7 25.7 99 0.1 SSW 11 15 6 8 1011.4 - 8.2
18/09:30pm 26.1 31.0 25.8 98 0.2 S 11 13 6 7 1011.4 - 8.0
18/09:00pm 26.2 30.5 25.5 96 0.5 WSW 13 17 7 9 1010.8 1010.8 8.0
18/08:30pm 26.5 29.0 25.3 93 0.8 W 22 30 12 16 1010.2 - 7.8
18/08:00pm 26.3 28.3 24.0 87 1.6 W 20 28 11 15 1009.6 - 7.8
18/07:30pm 27.6 30.0 24.2 82 2.4 N 19 33 10 18 1009.7 - 0.4
18/07:00pm 29.0 33.4 25.6 82 2.4 N 13 20 7 11 1008.8 - 0.0
18/06:30pm 29.2 34.1 25.8 82 2.4 N 11 19 6 10 1008.7 - 0.0
18/06:00pm 29.4 34.8 26.0 82 2.4 N 9 15 5 8 1008.8 1008.8 0.0
18/05:30pm 29.5 35.0 26.1 82 2.4 N 9 19 5 10 1008.5 - 0.0
18/05:00pm 29.1 33.4 25.5 81 2.5 N 13 19 7 10 1008.2 - 0.0
18/04:30pm 29.2 33.7 25.2 79 2.8 N 11 17 6 9 1008.3 - 0.0
18/04:00pm 29.1 33.0 24.9 78 2.9 N 13 20 7 11 1008.0 - 0.0
18/03:30pm 29.3 33.3 25.1 78 2.9 NNE 13 20 7 11 1008.0 - 0.0
18/03:00pm 29.5 32.9 24.1 72 3.8 N 13 20 7 11 1008.2 1008.2 0.0
18/02:30pm 29.9 33.5 24.3 72 3.9 NNE 13 22 7 12 1008.2 - 0.0
18/02:00pm 30.6 35.0 25.0 72 3.9 N 11 17 6 9 1008.2 - 0.0
18/01:30pm 31.1 34.0 24.5 68 4.6 N 17 26 9 14 1008.8 - 0.0
18/01:00pm 32.3 36.3 25.6 67 4.8 N 15 26 8 14 1009.1 - 0.0
18/12:30pm 31.7 36.3 25.3 69 4.5 N 11 19 6 10 1009.3 - 0.0
18/12:00pm 32.1 36.9 25.7 69 4.6 NNW 11 17 6 9 1009.7 1009.7 0.0
18/11:30am 32.6 37.6 26.6 70 4.3 NW 13 22 7 12 1010.2 - 0.0
18/11:00am 32.1 37.7 26.9 74 3.8 NW 11 17 6 9 1010.3 - 0.0
18/10:30am 31.8 37.5 27.0 76 3.5 NW 11 17 6 9 1010.4 - 0.0
18/10:00am 31.0 36.0 26.5 77 3.2 WNW 13 19 7 10 1010.6 - 0.0
18/09:30am 31.1 37.3 27.7 82 2.5 NW 11 17 6 9 1011.1 - 0.0
18/09:00am 30.5 37.1 27.7 85 2.0 NW 9 13 5 7 1011.1 1011.1 0.0
18/08:30am 29.9 38.1 28.1 90 1.3 WNW 2 7 1 4 1010.7 - 0.0
18/08:00am 29.2 37.2 27.9 93 0.9 S 2 7 1 4 1010.7 - 0.0
18/07:30am 28.1 35.8 27.4 96 0.5 S 2 7 1 4 1010.4 - 0.0
18/07:00am 27.0 32.7 25.9 94 0.8 S 7 11 4 6 1010.2 - 0.0
18/06:30am 27.4 32.5 26.2 93 0.9 WNW 11 13 6 7 1009.4 - 0.0
18/06:00am 27.2 32.2 26.0 93 0.8 WNW 11 15 6 8 1009.0 1009.0 0.0
18/05:30am 26.7 31.5 25.1 91 1.1 NW 9 13 5 7 1008.5 - 0.0
18/05:00am 26.8 31.2 25.0 90 1.3 NW 11 13 6 7 1008.0 - 0.0
18/04:30am 27.2 31.8 25.4 90 1.3 NW 11 15 6 8 1008.1 - 0.0
18/04:00am 27.7 32.4 26.1 91 1.1 NW 13 19 7 10 1008.2 - 0.0
18/03:30am 27.4 32.1 25.6 90 1.3 NW 11 15 6 8 1008.0 - 0.0
18/03:00am 27.7 32.6 25.9 90 1.3 WNW 11 15 6 8 1008.0 1008.0 0.0
18/02:30am 27.8 32.5 25.6 88 1.5 NW 11 15 6 8 1008.1 - 0.0
18/02:00am 28.1 32.2 25.7 87 1.7 WNW 15 20 8 11 1008.3 - 0.0
18/01:30am 28.0 31.5 25.4 86 1.8 NW 17 20 9 11 1008.5 - 0.0
18/01:00am 28.1 31.9 25.3 85 2.0 NW 15 20 8 11 1008.7 - 0.0
18/12:30am 28.1 31.5 25.3 85 2.0 NW 17 22 9 12 1009.0 - 0.0
18/12:00am 28.3 31.7 25.3 84 2.1 NNW 17 22 9 12 1009.1 1009.1 0.0

Other Formats:

Comma delimited format used in spreadsheet applications
http://www.bom.gov.au/fwo/IDD60801/IDD60801.94127.axf

JavaScript Object Notation format (JSON) in row-major order
http://www.bom.gov.au/fwo/IDD60801/IDD60801.94127.json